sensor_id;sensor_type;location;lat;lon;timestamp;P1;durP1;ratioP1;P2;durP2;ratioP2
20956;SDS011;10637;47.970;7.830;2023-06-22T00:03:02;15.73;;;6.30;;
20956;SDS011;10637;47.970;7.830;2023-06-22T00:08:04;16.33;;;5.87;;
20956;SDS011;10637;47.970;7.830;2023-06-22T00:13:06;17.67;;;6.17;;
20956;SDS011;10637;47.970;7.830;2023-06-22T00:18:09;18.87;;;5.87;;
20956;SDS011;10637;47.970;7.830;2023-06-22T00:23:12;15.80;;;6.50;;
20956;SDS011;10637;47.970;7.830;2023-06-22T00:28:17;15.47;;;6.23;;
20956;SDS011;10637;47.970;7.830;2023-06-22T00:33:18;15.23;;;6.40;;
20956;SDS011;10637;47.970;7.830;2023-06-22T00:38:20;19.73;;;6.33;;
20956;SDS011;10637;47.970;7.830;2023-06-22T00:43:22;16.00;;;7.07;;
20956;SDS011;10637;47.970;7.830;2023-06-22T00:48:24;16.57;;;6.47;;
20956;SDS011;10637;47.970;7.830;2023-06-22T00:53:26;15.43;;;6.43;;
20956;SDS011;10637;47.970;7.830;2023-06-22T00:58:27;13.30;;;5.77;;
20956;SDS011;10637;47.970;7.830;2023-06-22T01:03:29;16.57;;;6.93;;
20956;SDS011;10637;47.970;7.830;2023-06-22T01:08:35;15.73;;;6.77;;
20956;SDS011;10637;47.970;7.830;2023-06-22T01:13:50;17.57;;;6.63;;
20956;SDS011;10637;47.970;7.830;2023-06-22T01:19:18;18.17;;;7.13;;
20956;SDS011;10637;47.970;7.830;2023-06-22T01:24:57;15.53;;;6.73;;
20956;SDS011;10637;47.970;7.830;2023-06-22T01:30:13;16.77;;;7.07;;
20956;SDS011;10637;47.970;7.830;2023-06-22T01:35:17;19.57;;;7.67;;
20956;SDS011;10637;47.970;7.830;2023-06-22T01:40:21;14.47;;;6.50;;
20956;SDS011;10637;47.970;7.830;2023-06-22T01:45:23;16.73;;;6.17;;
20956;SDS011;10637;47.970;7.830;2023-06-22T01:50:26;12.73;;;6.93;;
20956;SDS011;10637;47.970;7.830;2023-06-22T01:55:28;17.13;;;7.07;;
20956;SDS011;10637;47.970;7.830;2023-06-22T02:00:37;16.53;;;6.83;;
20956;SDS011;10637;47.970;7.830;2023-06-22T02:05:43;18.37;;;6.83;;
20956;SDS011;10637;47.970;7.830;2023-06-22T02:10:51;16.07;;;6.63;;
20956;SDS011;10637;47.970;7.830;2023-06-22T02:15:54;18.03;;;7.80;;
20956;SDS011;10637;47.970;7.830;2023-06-22T02:20:56;18.13;;;7.03;;
20956;SDS011;10637;47.970;7.830;2023-06-22T02:25:58;16.47;;;6.70;;
20956;SDS011;10637;47.970;7.830;2023-06-22T02:31:00;19.67;;;7.10;;
20956;SDS011;10637;47.970;7.830;2023-06-22T02:36:02;21.70;;;7.13;;
20956;SDS011;10637;47.970;7.830;2023-06-22T02:41:10;16.07;;;7.93;;
20956;SDS011;10637;47.970;7.830;2023-06-22T02:46:14;14.93;;;7.13;;
20956;SDS011;10637;47.970;7.830;2023-06-22T02:51:16;16.07;;;7.20;;
20956;SDS011;10637;47.970;7.830;2023-06-22T02:56:17;18.43;;;8.10;;
20956;SDS011;10637;47.970;7.830;2023-06-22T03:01:20;17.63;;;7.57;;
20956;SDS011;10637;47.970;7.830;2023-06-22T03:06:25;16.77;;;7.97;;
20956;SDS011;10637;47.970;7.830;2023-06-22T03:11:30;16.87;;;7.50;;
20956;SDS011;10637;47.970;7.830;2023-06-22T03:16:35;18.17;;;7.40;;
20956;SDS011;10637;47.970;7.830;2023-06-22T03:21:38;17.73;;;8.40;;
20956;SDS011;10637;47.970;7.830;2023-06-22T03:26:40;18.37;;;7.47;;
20956;SDS011;10637;47.970;7.830;2023-06-22T03:31:41;20.60;;;8.53;;
20956;SDS011;10637;47.970;7.830;2023-06-22T03:36:43;15.73;;;8.00;;
20956;SDS011;10637;47.970;7.830;2023-06-22T03:41:46;16.10;;;7.80;;
20956;SDS011;10637;47.970;7.830;2023-06-22T03:46:48;17.70;;;7.50;;
20956;SDS011;10637;47.970;7.830;2023-06-22T03:51:50;18.00;;;8.80;;
20956;SDS011;10637;47.970;7.830;2023-06-22T03:56:51;19.20;;;8.00;;
20956;SDS011;10637;47.970;7.830;2023-06-22T04:01:53;17.87;;;7.37;;
20956;SDS011;10637;47.970;7.830;2023-06-22T04:06:55;14.67;;;7.90;;
20956;SDS011;10637;47.970;7.830;2023-06-22T04:11:57;19.20;;;7.20;;
20956;SDS011;10637;47.970;7.830;2023-06-22T04:16:59;18.77;;;7.93;;
20956;SDS011;10637;47.970;7.830;2023-06-22T04:22:00;18.00;;;8.17;;
20956;SDS011;10637;47.970;7.830;2023-06-22T04:27:02;17.90;;;7.87;;
20956;SDS011;10637;47.970;7.830;2023-06-22T04:32:05;15.43;;;7.17;;
20956;SDS011;10637;47.970;7.830;2023-06-22T04:37:07;17.00;;;7.67;;
20956;SDS011;10637;47.970;7.830;2023-06-22T04:42:09;18.67;;;7.83;;
20956;SDS011;10637;47.970;7.830;2023-06-22T04:47:11;16.60;;;8.07;;
20956;SDS011;10637;47.970;7.830;2023-06-22T04:52:13;18.90;;;8.50;;
20956;SDS011;10637;47.970;7.830;2023-06-22T04:57:18;23.20;;;8.30;;
20956;SDS011;10637;47.970;7.830;2023-06-22T05:02:20;22.00;;;8.03;;
20956;SDS011;10637;47.970;7.830;2023-06-22T05:07:23;14.43;;;6.50;;
20956;SDS011;10637;47.970;7.830;2023-06-22T05:12:27;17.57;;;9.10;;
20956;SDS011;10637;47.970;7.830;2023-06-22T05:17:31;24.00;;;10.17;;
20956;SDS011;10637;47.970;7.830;2023-06-22T05:22:32;23.67;;;10.10;;
20956;SDS011;10637;47.970;7.830;2023-06-22T05:27:34;19.17;;;9.40;;
20956;SDS011;10637;47.970;7.830;2023-06-22T05:32:40;20.27;;;9.90;;
20956;SDS011;10637;47.970;7.830;2023-06-22T05:37:42;22.10;;;10.23;;
20956;SDS011;10637;47.970;7.830;2023-06-22T05:42:44;16.00;;;9.10;;
20956;SDS011;10637;47.970;7.830;2023-06-22T05:47:45;18.50;;;9.67;;
20956;SDS011;10637;47.970;7.830;2023-06-22T05:52:47;19.63;;;9.47;;
20956;SDS011;10637;47.970;7.830;2023-06-22T05:57:49;20.57;;;10.13;;
20956;SDS011;10637;47.970;7.830;2023-06-22T06:02:51;22.50;;;9.97;;
20956;SDS011;10637;47.970;7.830;2023-06-22T06:07:52;51.40;;;11.90;;
20956;SDS011;10637;47.970;7.830;2023-06-22T06:12:54;18.93;;;9.77;;
20956;SDS011;10637;47.970;7.830;2023-06-22T06:17:56;17.20;;;9.17;;
20956;SDS011;10637;47.970;7.830;2023-06-22T06:22:58;20.90;;;9.50;;
20956;SDS011;10637;47.970;7.830;2023-06-22T06:28:00;20.57;;;9.60;;
20956;SDS011;10637;47.970;7.830;2023-06-22T06:33:02;22.17;;;10.37;;
20956;SDS011;10637;47.970;7.830;2023-06-22T06:38:05;23.57;;;10.57;;
20956;SDS011;10637;47.970;7.830;2023-06-22T06:43:07;17.50;;;9.67;;
20956;SDS011;10637;47.970;7.830;2023-06-22T06:48:09;25.67;;;13.57;;
20956;SDS011;10637;47.970;7.830;2023-06-22T06:53:11;25.40;;;13.73;;
20956;SDS011;10637;47.970;7.830;2023-06-22T06:58:13;24.03;;;14.00;;
20956;SDS011;10637;47.970;7.830;2023-06-22T07:03:15;27.30;;;13.67;;
20956;SDS011;10637;47.970;7.830;2023-06-22T07:08:17;26.43;;;12.57;;
20956;SDS011;10637;47.970;7.830;2023-06-22T07:13:19;20.60;;;11.90;;
20956;SDS011;10637;47.970;7.830;2023-06-22T07:18:20;20.77;;;12.30;;
20956;SDS011;10637;47.970;7.830;2023-06-22T07:23:22;20.13;;;10.07;;
20956;SDS011;10637;47.970;7.830;2023-06-22T07:28:24;17.83;;;8.83;;
20956;SDS011;10637;47.970;7.830;2023-06-22T07:33:26;16.43;;;8.40;;
20956;SDS011;10637;47.970;7.830;2023-06-22T07:38:29;19.30;;;9.00;;
20956;SDS011;10637;47.970;7.830;2023-06-22T07:43:31;17.20;;;8.43;;
20956;SDS011;10637;47.970;7.830;2023-06-22T07:48:36;14.23;;;7.57;;
20956;SDS011;10637;47.970;7.830;2023-06-22T07:53:42;19.70;;;8.90;;
20956;SDS011;10637;47.970;7.830;2023-06-22T07:58:45;18.43;;;8.97;;
20956;SDS011;10637;47.970;7.830;2023-06-22T08:03:48;15.70;;;7.47;;
20956;SDS011;10637;47.970;7.830;2023-06-22T08:08:50;14.70;;;7.45;;
20956;SDS011;10637;47.970;7.830;2023-06-22T08:13:55;18.30;;;9.15;;
20956;SDS011;10637;47.970;7.830;2023-06-22T08:18:59;16.38;;;8.30;;
20956;SDS011;10637;47.970;7.830;2023-06-22T08:24:01;14.05;;;7.75;;
20956;SDS011;10637;47.970;7.830;2023-06-22T08:29:03;18.42;;;8.20;;
20956;SDS011;10637;47.970;7.830;2023-06-22T08:34:05;15.48;;;7.30;;
20956;SDS011;10637;47.970;7.830;2023-06-22T08:39:07;16.48;;;8.02;;
20956;SDS011;10637;47.970;7.830;2023-06-22T08:44:09;17.25;;;8.13;;
20956;SDS011;10637;47.970;7.830;2023-06-22T08:49:11;17.17;;;7.68;;
20956;SDS011;10637;47.970;7.830;2023-06-22T08:54:12;16.60;;;7.70;;
20956;SDS011;10637;47.970;7.830;2023-06-22T08:59:14;21.27;;;8.15;;
20956;SDS011;10637;47.970;7.830;2023-06-22T09:04:16;15.55;;;7.47;;
20956;SDS011;10637;47.970;7.830;2023-06-22T09:09:18;15.85;;;7.80;;
20956;SDS011;10637;47.970;7.830;2023-06-22T09:14:22;19.40;;;7.43;;
20956;SDS011;10637;47.970;7.830;2023-06-22T09:19:24;17.48;;;7.20;;
20956;SDS011;10637;47.970;7.830;2023-06-22T09:24:26;19.08;;;7.50;;
20956;SDS011;10637;47.970;7.830;2023-06-22T09:29:28;18.73;;;6.93;;
20956;SDS011;10637;47.970;7.830;2023-06-22T09:34:29;15.63;;;7.65;;
20956;SDS011;10637;47.970;7.830;2023-06-22T09:39:32;15.50;;;7.38;;
20956;SDS011;10637;47.970;7.830;2023-06-22T09:44:34;17.75;;;7.35;;
20956;SDS011;10637;47.970;7.830;2023-06-22T09:49:36;15.73;;;7.68;;
20956;SDS011;10637;47.970;7.830;2023-06-22T09:54:48;18.20;;;7.72;;
20956;SDS011;10637;47.970;7.830;2023-06-22T09:59:50;14.60;;;7.70;;
20956;SDS011;10637;47.970;7.830;2023-06-22T10:04:52;14.52;;;8.02;;
20956;SDS011;10637;47.970;7.830;2023-06-22T10:09:54;15.25;;;7.68;;
20956;SDS011;10637;47.970;7.830;2023-06-22T10:14:56;16.40;;;7.97;;
20956;SDS011;10637;47.970;7.830;2023-06-22T10:19:58;17.27;;;7.63;;
20956;SDS011;10637;47.970;7.830;2023-06-22T10:25:02;14.77;;;7.88;;
20956;SDS011;10637;47.970;7.830;2023-06-22T10:30:04;20.00;;;8.32;;
20956;SDS011;10637;47.970;7.830;2023-06-22T10:35:07;14.18;;;7.80;;
20956;SDS011;10637;47.970;7.830;2023-06-22T10:40:09;18.45;;;8.40;;
20956;SDS011;10637;47.970;7.830;2023-06-22T10:45:13;14.45;;;7.63;;
20956;SDS011;10637;47.970;7.830;2023-06-22T10:50:15;18.85;;;8.20;;
20956;SDS011;10637;47.970;7.830;2023-06-22T10:55:17;16.00;;;8.10;;
20956;SDS011;10637;47.970;7.830;2023-06-22T11:00:19;16.20;;;8.82;;
20956;SDS011;10637;47.970;7.830;2023-06-22T11:05:21;18.40;;;8.80;;
20956;SDS011;10637;47.970;7.830;2023-06-22T11:10:22;17.63;;;9.32;;
20956;SDS011;10637;47.970;7.830;2023-06-22T11:15:25;20.65;;;9.43;;
20956;SDS011;10637;47.970;7.830;2023-06-22T11:20:26;20.92;;;10.02;;
20956;SDS011;10637;47.970;7.830;2023-06-22T11:25:29;14.90;;;9.50;;
20956;SDS011;10637;47.970;7.830;2023-06-22T11:30:30;14.98;;;9.18;;
20956;SDS011;10637;47.970;7.830;2023-06-22T11:35:32;15.68;;;9.65;;
20956;SDS011;10637;47.970;7.830;2023-06-22T11:40:34;18.17;;;9.80;;
20956;SDS011;10637;47.970;7.830;2023-06-22T11:45:36;16.80;;;9.07;;
20956;SDS011;10637;47.970;7.830;2023-06-22T11:50:38;15.95;;;8.43;;
20956;SDS011;10637;47.970;7.830;2023-06-22T11:55:39;19.73;;;8.73;;
20956;SDS011;10637;47.970;7.830;2023-06-22T12:00:41;17.08;;;9.05;;
20956;SDS011;10637;47.970;7.830;2023-06-22T12:05:52;18.10;;;8.77;;
20956;SDS011;10637;47.970;7.830;2023-06-22T12:10:54;21.67;;;9.25;;
20956;SDS011;10637;47.970;7.830;2023-06-22T12:15:55;17.15;;;8.73;;
20956;SDS011;10637;47.970;7.830;2023-06-22T12:20:57;21.63;;;9.95;;
20956;SDS011;10637;47.970;7.830;2023-06-22T12:25:59;18.73;;;10.55;;
20956;SDS011;10637;47.970;7.830;2023-06-22T12:31:02;22.75;;;10.77;;
20956;SDS011;10637;47.970;7.830;2023-06-22T12:36:04;23.77;;;9.43;;
20956;SDS011;10637;47.970;7.830;2023-06-22T12:41:06;17.73;;;8.45;;
20956;SDS011;10637;47.970;7.830;2023-06-22T12:46:08;22.33;;;9.73;;
20956;SDS011;10637;47.970;7.830;2023-06-22T12:51:10;23.42;;;9.85;;
20956;SDS011;10637;47.970;7.830;2023-06-22T12:56:11;22.45;;;9.48;;
20956;SDS011;10637;47.970;7.830;2023-06-22T13:01:13;18.30;;;9.03;;
20956;SDS011;10637;47.970;7.830;2023-06-22T13:06:15;20.20;;;8.63;;
20956;SDS011;10637;47.970;7.830;2023-06-22T13:11:17;19.73;;;8.50;;
20956;SDS011;10637;47.970;7.830;2023-06-22T13:16:19;22.37;;;7.70;;
20956;SDS011;10637;47.970;7.830;2023-06-22T13:21:20;16.50;;;8.02;;
20956;SDS011;10637;47.970;7.830;2023-06-22T13:26:22;16.83;;;8.02;;
20956;SDS011;10637;47.970;7.830;2023-06-22T13:31:25;17.08;;;8.20;;
20956;SDS011;10637;47.970;7.830;2023-06-22T13:36:27;17.98;;;7.95;;
20956;SDS011;10637;47.970;7.830;2023-06-22T13:41:31;17.33;;;7.93;;
20956;SDS011;10637;47.970;7.830;2023-06-22T13:46:33;22.90;;;8.38;;
20956;SDS011;10637;47.970;7.830;2023-06-22T13:51:36;21.67;;;7.67;;
20956;SDS011;10637;47.970;7.830;2023-06-22T13:56:37;22.63;;;7.93;;
20956;SDS011;10637;47.970;7.830;2023-06-22T14:01:39;20.83;;;7.83;;
20956;SDS011;10637;47.970;7.830;2023-06-22T14:06:42;19.47;;;7.70;;
20956;SDS011;10637;47.970;7.830;2023-06-22T14:11:44;22.23;;;8.03;;
20956;SDS011;10637;47.970;7.830;2023-06-22T14:16:45;18.57;;;8.23;;
20956;SDS011;10637;47.970;7.830;2023-06-22T14:21:47;18.63;;;7.35;;
20956;SDS011;10637;47.970;7.830;2023-06-22T14:26:49;17.97;;;8.07;;
20956;SDS011;10637;47.970;7.830;2023-06-22T14:31:51;19.50;;;7.83;;
20956;SDS011;10637;47.970;7.830;2023-06-22T14:36:53;16.40;;;8.60;;
20956;SDS011;10637;47.970;7.830;2023-06-22T14:41:55;21.83;;;8.67;;
20956;SDS011;10637;47.970;7.830;2023-06-22T14:46:57;22.27;;;7.68;;
20956;SDS011;10637;47.970;7.830;2023-06-22T14:51:59;17.38;;;7.00;;
20956;SDS011;10637;47.970;7.830;2023-06-22T14:57:00;22.48;;;8.00;;
20956;SDS011;10637;47.970;7.830;2023-06-22T15:02:02;19.40;;;7.47;;
20956;SDS011;10637;47.970;7.830;2023-06-22T15:07:04;18.65;;;7.82;;
20956;SDS011;10637;47.970;7.830;2023-06-22T15:12:06;21.38;;;8.13;;
20956;SDS011;10637;47.970;7.830;2023-06-22T15:17:12;22.17;;;8.07;;
20956;SDS011;10637;47.970;7.830;2023-06-22T15:22:15;16.35;;;7.22;;
20956;SDS011;10637;47.970;7.830;2023-06-22T15:27:19;15.18;;;6.03;;
20956;SDS011;10637;47.970;7.830;2023-06-22T15:32:21;20.30;;;7.43;;
20956;SDS011;10637;47.970;7.830;2023-06-22T15:37:23;19.02;;;6.45;;
20956;SDS011;10637;47.970;7.830;2023-06-22T15:42:25;16.05;;;6.55;;
20956;SDS011;10637;47.970;7.830;2023-06-22T15:47:26;21.55;;;6.13;;
20956;SDS011;10637;47.970;7.830;2023-06-22T15:52:28;17.10;;;7.03;;
20956;SDS011;10637;47.970;7.830;2023-06-22T15:57:30;22.50;;;7.15;;
20956;SDS011;10637;47.970;7.830;2023-06-22T16:02:32;19.58;;;6.47;;
20956;SDS011;10637;47.970;7.830;2023-06-22T16:07:34;20.00;;;6.53;;
20956;SDS011;10637;47.970;7.830;2023-06-22T16:12:36;15.35;;;6.60;;
20956;SDS011;10637;47.970;7.830;2023-06-22T16:17:42;18.77;;;6.30;;
20956;SDS011;10637;47.970;7.830;2023-06-22T16:22:44;17.30;;;5.43;;
20956;SDS011;10637;47.970;7.830;2023-06-22T16:27:47;17.70;;;6.07;;
20956;SDS011;10637;47.970;7.830;2023-06-22T16:32:53;23.35;;;6.47;;
20956;SDS011;10637;47.970;7.830;2023-06-22T16:38:03;20.63;;;5.68;;
20956;SDS011;10637;47.970;7.830;2023-06-22T16:43:04;22.27;;;5.55;;
20956;SDS011;10637;47.970;7.830;2023-06-22T16:48:06;17.08;;;5.65;;
20956;SDS011;10637;47.970;7.830;2023-06-22T16:53:09;16.45;;;5.90;;
20956;SDS011;10637;47.970;7.830;2023-06-22T16:58:10;18.83;;;6.20;;
20956;SDS011;10637;47.970;7.830;2023-06-22T17:03:16;18.77;;;5.88;;
20956;SDS011;10637;47.970;7.830;2023-06-22T17:08:31;17.77;;;5.75;;
20956;SDS011;10637;47.970;7.830;2023-06-22T17:13:34;21.63;;;6.38;;
20956;SDS011;10637;47.970;7.830;2023-06-22T17:18:36;17.95;;;6.72;;
20956;SDS011;10637;47.970;7.830;2023-06-22T17:23:41;25.33;;;5.97;;
20956;SDS011;10637;47.970;7.830;2023-06-22T17:28:46;16.17;;;5.65;;
20956;SDS011;10637;47.970;7.830;2023-06-22T17:33:51;21.13;;;5.80;;
20956;SDS011;10637;47.970;7.830;2023-06-22T17:38:58;15.07;;;5.57;;
20956;SDS011;10637;47.970;7.830;2023-06-22T17:44:00;15.10;;;5.50;;
20956;SDS011;10637;47.970;7.830;2023-06-22T17:49:09;17.77;;;5.35;;
20956;SDS011;10637;47.970;7.830;2023-06-22T17:54:14;18.97;;;5.97;;
20956;SDS011;10637;47.970;7.830;2023-06-22T17:59:17;16.07;;;4.77;;
20956;SDS011;10637;47.970;7.830;2023-06-22T18:04:21;13.60;;;3.40;;
20956;SDS011;10637;47.970;7.830;2023-06-22T18:09:24;16.40;;;4.33;;
20956;SDS011;10637;47.970;7.830;2023-06-22T18:14:28;12.87;;;3.83;;
20956;SDS011;10637;47.970;7.830;2023-06-22T18:19:31;10.77;;;3.83;;
20956;SDS011;10637;47.970;7.830;2023-06-22T18:24:35;9.73;;;3.80;;
20956;SDS011;10637;47.970;7.830;2023-06-22T18:29:37;11.77;;;4.30;;
20956;SDS011;10637;47.970;7.830;2023-06-22T18:34:41;11.57;;;4.60;;
20956;SDS011;10637;47.970;7.830;2023-06-22T18:39:44;10.53;;;4.30;;
20956;SDS011;10637;47.970;7.830;2023-06-22T18:44:53;12.40;;;4.97;;
20956;SDS011;10637;47.970;7.830;2023-06-22T18:50:06;14.10;;;4.93;;
20956;SDS011;10637;47.970;7.830;2023-06-22T18:55:11;10.83;;;4.70;;
20956;SDS011;10637;47.970;7.830;2023-06-22T19:00:14;11.43;;;5.00;;
20956;SDS011;10637;47.970;7.830;2023-06-22T19:05:17;10.73;;;4.70;;
20956;SDS011;10637;47.970;7.830;2023-06-22T19:15:41;12.97;;;4.63;;
20956;SDS011;10637;47.970;7.830;2023-06-22T19:20:46;13.43;;;5.03;;
20956;SDS011;10637;47.970;7.830;2023-06-22T19:25:49;11.23;;;5.13;;
20956;SDS011;10637;47.970;7.830;2023-06-22T19:30:55;13.30;;;5.70;;
20956;SDS011;10637;47.970;7.830;2023-06-22T19:36:02;13.77;;;5.40;;
20956;SDS011;10637;47.970;7.830;2023-06-22T19:41:06;11.03;;;5.40;;
20956;SDS011;10637;47.970;7.830;2023-06-22T19:46:09;11.20;;;5.40;;
20956;SDS011;10637;47.970;7.830;2023-06-22T19:51:10;20.33;;;7.17;;
20956;SDS011;10637;47.970;7.830;2023-06-22T19:56:18;12.17;;;5.43;;
20956;SDS011;10637;47.970;7.830;2023-06-22T20:01:22;14.73;;;6.13;;
20956;SDS011;10637;47.970;7.830;2023-06-22T20:06:24;11.90;;;5.97;;
20956;SDS011;10637;47.970;7.830;2023-06-22T20:11:27;11.97;;;5.30;;
20956;SDS011;10637;47.970;7.830;2023-06-22T20:16:31;15.53;;;5.70;;
20956;SDS011;10637;47.970;7.830;2023-06-22T20:21:33;11.70;;;4.83;;
20956;SDS011;10637;47.970;7.830;2023-06-22T20:26:41;12.30;;;4.70;;
20956;SDS011;10637;47.970;7.830;2023-06-22T20:31:43;12.90;;;5.33;;
20956;SDS011;10637;47.970;7.830;2023-06-22T20:36:45;11.53;;;4.60;;
20956;SDS011;10637;47.970;7.830;2023-06-22T20:41:46;11.67;;;4.50;;
20956;SDS011;10637;47.970;7.830;2023-06-22T20:46:48;13.00;;;5.60;;
20956;SDS011;10637;47.970;7.830;2023-06-22T20:51:50;11.27;;;4.97;;
20956;SDS011;10637;47.970;7.830;2023-06-22T20:56:52;9.97;;;4.10;;
20956;SDS011;10637;47.970;7.830;2023-06-22T21:01:53;11.87;;;4.43;;
20956;SDS011;10637;47.970;7.830;2023-06-22T21:06:57;11.53;;;4.67;;
20956;SDS011;10637;47.970;7.830;2023-06-22T21:11:59;9.30;;;4.10;;
20956;SDS011;10637;47.970;7.830;2023-06-22T21:17:01;11.13;;;4.30;;
20956;SDS011;10637;47.970;7.830;2023-06-22T21:22:03;10.63;;;4.43;;
20956;SDS011;10637;47.970;7.830;2023-06-22T21:27:05;9.23;;;4.17;;
20956;SDS011;10637;47.970;7.830;2023-06-22T21:32:07;9.90;;;4.10;;
20956;SDS011;10637;47.970;7.830;2023-06-22T21:37:09;13.03;;;4.33;;
20956;SDS011;10637;47.970;7.830;2023-06-22T21:42:12;12.57;;;3.70;;
20956;SDS011;10637;47.970;7.830;2023-06-22T21:47:14;7.93;;;3.30;;
20956;SDS011;10637;47.970;7.830;2023-06-22T21:52:16;7.83;;;2.57;;
20956;SDS011;10637;47.970;7.830;2023-06-22T21:57:18;6.20;;;1.80;;
20956;SDS011;10637;47.970;7.830;2023-06-22T22:02:23;10.33;;;1.83;;
20956;SDS011;10637;47.970;7.830;2023-06-22T22:07:25;4.83;;;1.60;;
20956;SDS011;10637;47.970;7.830;2023-06-22T22:12:26;6.63;;;1.50;;
20956;SDS011;10637;47.970;7.830;2023-06-22T22:17:28;5.07;;;1.60;;
20956;SDS011;10637;47.970;7.830;2023-06-22T22:22:30;4.97;;;1.37;;
20956;SDS011;10637;47.970;7.830;2023-06-22T22:27:32;4.50;;;1.50;;
20956;SDS011;10637;47.970;7.830;2023-06-22T22:32:34;4.53;;;1.53;;
20956;SDS011;10637;47.970;7.830;2023-06-22T22:37:35;8.33;;;1.80;;
20956;SDS011;10637;47.970;7.830;2023-06-22T22:42:38;5.80;;;1.50;;
20956;SDS011;10637;47.970;7.830;2023-06-22T22:47:40;6.63;;;1.70;;
20956;SDS011;10637;47.970;7.830;2023-06-22T22:52:41;5.23;;;1.70;;
20956;SDS011;10637;47.970;7.830;2023-06-22T22:57:44;5.63;;;1.70;;
20956;SDS011;10637;47.970;7.830;2023-06-22T23:02:46;5.73;;;1.83;;
20956;SDS011;10637;47.970;7.830;2023-06-22T23:07:49;5.73;;;1.80;;
20956;SDS011;10637;47.970;7.830;2023-06-22T23:12:51;6.90;;;2.10;;
20956;SDS011;10637;47.970;7.830;2023-06-22T23:17:52;6.10;;;2.20;;
20956;SDS011;10637;47.970;7.830;2023-06-22T23:22:54;7.67;;;2.40;;
20956;SDS011;10637;47.970;7.830;2023-06-22T23:33:12;6.30;;;2.60;;
20956;SDS011;10637;47.970;7.830;2023-06-22T23:38:13;6.73;;;2.27;;
20956;SDS011;10637;47.970;7.830;2023-06-22T23:43:17;6.63;;;1.97;;
20956;SDS011;10637;47.970;7.830;2023-06-22T23:48:22;7.17;;;2.07;;
20956;SDS011;10637;47.970;7.830;2023-06-22T23:53:25;7.57;;;2.80;;
20956;SDS011;10637;47.970;7.830;2023-06-22T23:58:27;7.63;;;3.40;;
